createdAt,value
2019-04-11T00:01:12.741Z,98622.67
2019-04-11T00:03:41.923Z,98624.25
2019-04-11T00:06:11.723Z,98617.88
2019-04-11T00:08:40.327Z,98616.96
2019-04-11T00:11:09.481Z,98611.15
2019-04-11T00:13:39.116Z,98617.55
2019-04-11T00:16:08.831Z,98615.35
2019-04-11T00:18:38.741Z,98619.31
2019-04-11T00:21:08.646Z,98622.23
2019-04-11T00:23:38.536Z,98622.02
2019-04-11T00:26:08.315Z,98621.81
2019-04-11T00:28:37.467Z,98620.97
2019-04-11T00:31:06.346Z,98617.89
2019-04-11T00:33:35.193Z,98620.80
2019-04-11T00:36:04.188Z,98612.42
2019-04-11T00:38:34.127Z,98605.52
2019-04-11T00:41:03.728Z,98605.39
2019-04-11T00:43:37.743Z,98607.41
2019-04-11T00:46:02.948Z,98601.81
2019-04-11T00:48:31.652Z,98604.34
2019-04-11T00:51:01.357Z,98605.04
2019-04-11T00:53:30.083Z,98606.64
2019-04-11T00:55:59.793Z,98608.11
2019-04-11T00:58:29.683Z,98609.80
2019-04-11T01:00:59.450Z,98601.11
2019-04-11T01:03:28.469Z,98592.94
2019-04-11T01:05:58.194Z,98600.00
2019-04-11T01:08:27.391Z,98602.06
2019-04-11T01:10:57.395Z,98604.03
2019-04-11T01:13:26.078Z,98602.40
2019-04-11T01:16:02.978Z,98602.27
2019-04-11T01:18:31.668Z,98600.30
2019-04-11T01:21:00.294Z,98601.80
2019-04-11T01:23:29.215Z,98597.83
2019-04-11T01:25:59.035Z,98600.74
2019-04-11T01:28:28.854Z,98597.04
2019-04-11T01:31:05.244Z,98599.39
2019-04-11T01:33:34.025Z,98600.83
2019-04-11T01:36:02.762Z,98603.78
2019-04-11T01:38:32.528Z,98599.45
2019-04-11T01:41:01.046Z,98600.05
2019-04-11T01:43:30.717Z,98601.60
2019-04-11T01:46:00.083Z,98599.32
2019-04-11T01:48:31.234Z,98599.27
2019-04-11T01:51:01.115Z,98597.83
2019-04-11T01:53:30.966Z,98598.67
2019-04-11T01:55:59.664Z,98597.04
2019-04-11T01:58:28.867Z,98595.48
2019-04-11T02:01:01.760Z,98597.55
2019-04-11T02:03:35.044Z,98600.74
2019-04-11T02:06:03.888Z,98601.88
2019-04-11T02:08:33.443Z,98604.02
2019-04-11T02:11:03.319Z,98599.41
2019-04-11T02:13:32.177Z,98596.80
2019-04-11T02:16:01.430Z,98597.27
2019-04-11T02:18:30.132Z,98598.68
2019-04-11T02:20:58.768Z,98599.94
2019-04-11T02:23:32.021Z,98589.75
2019-04-11T02:26:03.006Z,98586.19
2019-04-11T02:28:32.792Z,98592.23
2019-04-11T02:31:02.905Z,98589.81
2019-04-11T02:33:32.926Z,98599.12
2019-04-11T02:36:03.170Z,98597.56
2019-04-11T02:38:32.547Z,98598.82
2019-04-11T02:41:03.664Z,98600.78
2019-04-11T02:43:34.093Z,98595.06
2019-04-11T02:46:11.799Z,98598.68
2019-04-11T02:48:35.636Z,98595.41
2019-04-11T02:51:06.689Z,98605.48
2019-04-11T02:53:36.634Z,98598.11
2019-04-11T02:56:06.794Z,98609.11
2019-04-11T02:58:36.884Z,98606.14
2019-04-11T03:01:07.920Z,98603.12
2019-04-11T03:03:37.345Z,98602.66
2019-04-11T03:06:07.079Z,98608.10
2019-04-11T03:08:36.670Z,98609.34
2019-04-11T03:11:07.686Z,98607.98
2019-04-11T03:13:38.467Z,98604.98
2019-04-11T03:16:23.940Z,98609.72
2019-04-11T03:18:54.866Z,98608.80
2019-04-11T03:21:13.637Z,98615.92
2019-04-11T03:23:39.854Z,98613.64
2019-04-11T03:26:11.840Z,98617.42
2019-04-11T03:28:44.380Z,98624.84
2019-04-11T03:31:59.589Z,98627.08
2019-04-11T03:37:08.546Z,98624.71
2019-04-11T03:39:05.690Z,98632.30
2019-04-11T03:41:32.058Z,98632.89
2019-04-11T03:43:58.233Z,98633.08
2019-04-11T03:46:33.876Z,98634.84
2019-04-11T03:48:59.999Z,98637.53
2019-04-11T03:51:18.743Z,98637.53
2019-04-11T03:53:49.059Z,98635.89
2019-04-11T03:56:19.562Z,98645.95
2019-04-11T03:58:48.681Z,98645.95
2019-04-11T04:01:22.163Z,98648.11
2019-04-11T04:03:51.093Z,98645.83
2019-04-11T04:06:21.033Z,98642.42
2019-04-11T04:08:50.850Z,98647.19
2019-04-11T04:11:26.962Z,98655.44
2019-04-11T04:14:04.213Z,98654.13
2019-04-11T04:16:40.378Z,98652.87
2019-04-11T04:19:16.388Z,98657.00
2019-04-11T04:21:51.091Z,98652.23
2019-04-11T04:24:32.126Z,98656.45
2019-04-11T04:27:01.678Z,98650.98
2019-04-11T04:29:32.056Z,98653.46
2019-04-11T04:32:00.596Z,98650.26
2019-04-11T04:34:29.238Z,98648.83
2019-04-11T04:37:00.080Z,98654.84
2019-04-11T04:39:29.945Z,98665.46
2019-04-11T04:42:06.817Z,98664.95
2019-04-11T04:44:31.619Z,98667.30
2019-04-11T04:47:14.674Z,98668.86
2019-04-11T04:49:32.267Z,98670.48
2019-04-11T04:52:01.529Z,98668.63
2019-04-11T04:54:30.850Z,98665.38
2019-04-11T04:57:00.959Z,98670.20
2019-04-11T04:59:30.131Z,98674.36
2019-04-11T05:01:59.347Z,98675.64
2019-04-11T05:04:29.636Z,98674.20
2019-04-11T05:07:01.255Z,98677.66
2019-04-11T05:09:30.007Z,98680.19
2019-04-11T05:11:59.355Z,98676.15
2019-04-11T05:14:29.429Z,98679.59
2019-04-11T05:17:02.369Z,98681.20
2019-04-11T05:19:32.030Z,98679.09
2019-04-11T05:22:01.834Z,98677.42
2019-04-11T05:24:30.548Z,98678.31
2019-04-11T05:26:59.884Z,98674.91
2019-04-11T05:29:29.251Z,98681.06
2019-04-11T05:31:58.920Z,98674.83
2019-04-11T05:34:28.035Z,98666.70
2019-04-11T05:36:57.617Z,98667.86
2019-04-11T05:39:27.542Z,98673.00
2019-04-11T05:41:56.679Z,98678.61
2019-04-11T05:44:25.397Z,98677.69
2019-04-11T05:46:57.618Z,98672.70
2019-04-11T05:49:45.091Z,98669.16
2019-04-11T05:52:14.155Z,98672.73
2019-04-11T05:54:48.983Z,98666.84
2019-04-11T05:57:15.888Z,98665.45
2019-04-11T05:59:49.975Z,98664.05
2019-04-11T06:02:29.041Z,98657.34
2019-04-11T06:05:00.530Z,98657.36
2019-04-11T06:07:41.120Z,98653.81
2019-04-11T06:10:11.218Z,98654.30
2019-04-11T06:12:41.400Z,98658.31
2019-04-11T06:15:20.061Z,98660.08
2019-04-11T06:17:50.384Z,98659.70
2019-04-11T06:20:21.948Z,98653.00
2019-04-11T06:22:52.424Z,98650.54
2019-04-11T06:25:25.894Z,98658.27
2019-04-11T06:27:57.888Z,98655.72
2019-04-11T06:30:28.418Z,98661.66
2019-04-11T06:33:19.086Z,98658.84
2019-04-11T06:35:50.347Z,98652.53
2019-04-11T06:38:20.658Z,98658.46
2019-04-11T06:41:03.059Z,98654.50
2019-04-11T06:43:34.178Z,98656.35
2019-04-11T06:46:16.692Z,98661.47
2019-04-11T06:49:04.490Z,98660.61
2019-04-11T06:51:50.792Z,98655.86
2019-04-11T06:54:39.339Z,98659.06
2019-04-11T06:57:09.718Z,98666.38
2019-04-11T06:59:42.927Z,98674.44
2019-04-11T07:02:18.062Z,98669.90
2019-04-11T07:04:57.914Z,98667.89
2019-04-11T07:07:29.444Z,98667.89
2019-04-11T07:10:01.933Z,98671.02
2019-04-11T07:12:44.564Z,98671.58
2019-04-11T07:15:18.639Z,98672.03
2019-04-11T07:18:07.477Z,98665.27
2019-04-11T07:20:46.014Z,98663.94
2019-04-11T07:23:32.922Z,98663.48
2019-04-11T07:26:04.454Z,98665.03
2019-04-11T07:28:41.683Z,98666.28
2019-04-11T07:31:30.064Z,98663.87
2019-04-11T07:34:17.143Z,98661.48
2019-04-11T07:37:04.584Z,98665.66
2019-04-11T07:39:41.392Z,98666.70
2019-04-11T07:42:13.699Z,98662.00
2019-04-11T07:45:00.034Z,98662.00
2019-04-11T07:47:30.244Z,98667.48
2019-04-11T07:50:00.430Z,98660.37
2019-04-11T07:52:32.696Z,98661.56
2019-04-11T07:55:00.474Z,98654.39
2019-04-11T07:57:33.390Z,98659.59
2019-04-11T08:00:06.226Z,98658.17
2019-04-11T08:02:51.358Z,98655.41
2019-04-11T08:05:30.723Z,98664.76
2019-04-11T08:08:01.034Z,98659.31
2019-04-11T08:10:37.247Z,98656.93
2019-04-11T08:13:14.305Z,98657.28
2019-04-11T08:15:50.682Z,98659.63
2019-04-11T08:18:37.213Z,98653.92
2019-04-11T08:21:24.404Z,98654.09
2019-04-11T08:23:54.598Z,98650.16
2019-04-11T08:26:40.133Z,98649.80
2019-04-11T08:29:12.331Z,98647.81
2019-04-11T08:31:46.683Z,98647.09
2019-04-11T08:34:17.256Z,98645.50
2019-04-11T08:37:03.537Z,98650.44
2019-04-11T08:39:33.017Z,98649.98
2019-04-11T08:42:21.452Z,98654.81
2019-04-11T08:44:50.232Z,98650.50
2019-04-11T08:47:18.869Z,98652.37
2019-04-11T08:49:48.129Z,98656.52
2019-04-11T08:52:18.399Z,98647.89
2019-04-11T08:54:48.719Z,98648.23
2019-04-11T08:57:20.034Z,98648.17
2019-04-11T08:59:59.950Z,98646.67
2019-04-11T09:02:31.054Z,98645.95
2019-04-11T09:05:13.726Z,98630.45
2019-04-11T09:07:38.924Z,98633.55
2019-04-11T09:10:26.206Z,98630.61
2019-04-11T09:13:11.586Z,98627.45
2019-04-11T09:15:59.318Z,98623.71
2019-04-11T09:18:30.254Z,98630.88
2019-04-11T09:21:16.805Z,98620.20
2019-04-11T09:23:46.051Z,98630.93
2019-04-11T09:26:20.181Z,98626.42
2019-04-11T09:28:49.435Z,98621.33
2019-04-11T09:31:31.875Z,98623.50
2019-04-11T09:34:11.323Z,98621.86
2019-04-11T09:36:45.192Z,98626.75
2019-04-11T09:39:15.480Z,98617.70
2019-04-11T09:41:57.343Z,98622.34
2019-04-11T09:44:44.733Z,98624.39
2019-04-11T09:47:31.064Z,98615.95
2019-04-11T09:50:04.369Z,98621.63
2019-04-11T09:52:43.480Z,98620.41
2019-04-11T09:55:31.119Z,98621.61
2019-04-11T09:58:01.307Z,98627.72
2019-04-11T10:00:36.766Z,98624.45
2019-04-11T10:03:08.630Z,98618.28
2019-04-11T10:05:38.926Z,98612.13
2019-04-11T10:08:18.963Z,98612.20
2019-04-11T10:10:53.271Z,98604.86
2019-04-11T10:13:24.812Z,98604.20
2019-04-11T10:15:55.745Z,98602.62
2019-04-11T10:18:42.365Z,98604.61
2019-04-11T10:21:15.622Z,98601.98
2019-04-11T10:23:54.733Z,98601.09
2019-04-11T10:26:23.977Z,98608.55
2019-04-11T10:29:11.430Z,98607.25
2019-04-11T10:31:42.296Z,98600.70
2019-04-11T10:34:15.360Z,98603.02
2019-04-11T10:36:45.606Z,98607.06
2019-04-11T10:39:15.925Z,98603.66
2019-04-11T10:41:49.142Z,98612.92
2019-04-11T10:44:19.678Z,98605.04
2019-04-11T10:46:55.790Z,98608.86
2019-04-11T10:49:42.566Z,98615.97
2019-04-11T10:52:28.768Z,98622.40
2019-04-11T10:55:07.798Z,98617.30
2019-04-11T10:57:49.767Z,98626.05
2019-04-11T11:00:20.930Z,98623.11
2019-04-11T11:02:57.858Z,98626.20
2019-04-11T11:05:28.413Z,98623.88
2019-04-11T11:07:59.273Z,98631.73
2019-04-11T11:10:29.518Z,98626.83
2019-04-11T11:13:02.370Z,98623.91
2019-04-11T11:15:33.685Z,98623.08
2019-04-11T11:18:35.241Z,98629.66
2019-04-11T11:20:50.198Z,98622.88
2019-04-11T11:23:30.972Z,98623.71
2019-04-11T11:26:10.153Z,98628.66
2019-04-11T11:28:43.235Z,98625.13
2019-04-11T11:31:14.117Z,98624.56
2019-04-11T11:33:44.864Z,98627.79
2019-04-11T11:36:15.381Z,98623.63
2019-04-11T11:38:48.255Z,98621.72
2019-04-11T11:41:33.371Z,98613.28
2019-04-11T11:44:01.882Z,98621.67
2019-04-11T11:46:50.161Z,98629.54
2019-04-11T11:49:32.562Z,98615.47
2019-04-11T11:52:06.754Z,98623.88
2019-04-11T11:54:39.787Z,98616.63
2019-04-11T11:57:10.803Z,98626.23
2019-04-11T11:59:44.909Z,98627.91
2019-04-11T12:02:17.345Z,98632.81
2019-04-11T12:05:00.283Z,98630.04
2019-04-11T12:07:37.094Z,98638.36
2019-04-11T12:10:19.588Z,98634.60
2019-04-11T12:13:10.873Z,98636.31
2019-04-11T12:15:45.579Z,98645.78
2019-04-11T12:18:44.994Z,98641.78
2019-04-11T12:21:11.670Z,98641.47
2019-04-11T12:23:48.583Z,98633.82
2019-04-11T12:26:14.129Z,98638.23
2019-04-11T12:28:52.703Z,98634.17
2019-04-11T12:31:23.880Z,98635.28
2019-04-11T12:34:10.438Z,98631.47
2019-04-11T12:36:47.367Z,98630.94
2019-04-11T12:39:15.622Z,98629.80
2019-04-11T12:41:45.865Z,98630.56
2019-04-11T12:44:31.102Z,98635.76
2019-04-11T12:47:07.830Z,98631.28
2019-04-11T12:49:52.730Z,98630.23
2019-04-11T12:52:31.468Z,98628.15
2019-04-11T12:55:04.434Z,98628.08
2019-04-11T12:57:50.546Z,98619.42
2019-04-11T13:00:20.913Z,98630.40
2019-04-11T13:02:53.875Z,98624.90
2019-04-11T13:05:24.185Z,98620.16
2019-04-11T13:08:09.682Z,98624.98
2019-04-11T13:10:40.195Z,98635.47
2019-04-11T13:13:24.823Z,98635.99
2019-04-11T13:15:58.087Z,98649.27
2019-04-11T13:18:28.362Z,98651.44
2019-04-11T13:20:58.679Z,98656.88
2019-04-11T13:23:44.983Z,98657.04
2019-04-11T13:26:15.276Z,98657.39
2019-04-11T13:28:45.520Z,98648.75
2019-04-11T13:31:31.903Z,98652.72
2019-04-11T13:34:02.145Z,98658.62
2019-04-11T13:36:41.298Z,98659.48
2019-04-11T13:39:09.935Z,98658.42
2019-04-11T13:41:42.648Z,98668.16
2019-04-11T13:44:12.907Z,98668.35
2019-04-11T13:46:59.252Z,98669.07
2019-04-11T13:49:47.383Z,98663.03
2019-04-11T13:52:23.232Z,98662.09
2019-04-11T13:54:59.390Z,98655.39
2019-04-11T13:57:41.498Z,98662.98
2019-04-11T14:00:28.331Z,98661.84
2019-04-11T14:03:14.546Z,98649.94
2019-04-11T14:05:43.570Z,98647.79
2019-04-11T14:08:17.942Z,98647.81
2019-04-11T14:10:48.352Z,98639.02
2019-04-11T14:13:16.915Z,98641.98
2019-04-11T14:15:47.159Z,98645.65
2019-04-11T14:18:20.383Z,98647.41
2019-04-11T14:20:50.540Z,98645.49
2019-04-11T14:23:20.682Z,98648.62
2019-04-11T14:25:56.861Z,98650.21
2019-04-11T14:28:27.123Z,98649.05
2019-04-11T14:30:57.320Z,98649.44
2019-04-11T14:33:27.630Z,98643.40
2019-04-11T14:36:03.779Z,98645.45
2019-04-11T14:38:32.928Z,98639.42
2019-04-11T14:41:22.197Z,98644.67
2019-04-11T14:43:52.485Z,98645.27
2019-04-11T14:46:25.861Z,98642.97
2019-04-11T14:48:56.161Z,98629.23
2019-04-11T14:51:29.207Z,98632.05
2019-04-11T14:54:05.292Z,98627.69
2019-04-11T14:56:44.543Z,98628.33
2019-04-11T14:59:32.642Z,98637.66
2019-04-11T15:02:02.955Z,98625.98
2019-04-11T15:04:49.006Z,98632.29
2019-04-11T15:07:20.804Z,98621.45
2019-04-11T15:10:07.249Z,98621.45
2019-04-11T15:12:41.784Z,98620.63
2019-04-11T15:15:30.512Z,98615.30
2019-04-11T15:18:00.744Z,98624.64
2019-04-11T15:20:34.645Z,98616.30
2019-04-11T15:23:21.267Z,98611.88
2019-04-11T15:25:57.282Z,98611.88
2019-04-11T15:28:27.581Z,98626.91
2019-04-11T15:30:57.814Z,98618.50
2019-04-11T15:33:42.962Z,98611.11
2019-04-11T15:36:16.100Z,98616.50
2019-04-11T15:39:02.461Z,98610.30
2019-04-11T15:41:32.168Z,98617.98
2019-04-11T15:44:17.681Z,98622.16
2019-04-11T15:46:47.889Z,98620.58
2019-04-11T15:49:30.190Z,98620.58
2019-04-11T15:52:01.306Z,98620.52
2019-04-11T15:54:47.890Z,98619.86
2019-04-11T15:57:18.164Z,98618.86
2019-04-11T16:00:05.098Z,98619.66
2019-04-11T16:02:41.113Z,98617.20
2019-04-11T16:05:26.415Z,98622.31
2019-04-11T16:08:12.693Z,98627.41
2019-04-11T16:10:59.236Z,98630.47
2019-04-11T16:13:38.497Z,98631.22
2019-04-11T16:16:11.879Z,98633.23
2019-04-11T16:18:40.657Z,98634.27
2019-04-11T16:21:18.588Z,98635.25
2019-04-11T16:23:48.273Z,98632.88
2019-04-11T16:26:18.473Z,98642.41
2019-04-11T16:28:48.637Z,98634.74
2019-04-11T16:31:17.191Z,98640.65
2019-04-11T16:33:50.296Z,98644.16
2019-04-11T16:36:20.563Z,98647.13
2019-04-11T16:38:53.619Z,98650.94
2019-04-11T16:41:43.283Z,98652.34
2019-04-11T16:44:29.457Z,98646.77
2019-04-11T16:47:15.955Z,98643.50
2019-04-11T16:49:44.486Z,98648.09
2019-04-11T16:52:13.083Z,98648.07
2019-04-11T16:54:41.795Z,98646.69
2019-04-11T16:57:13.563Z,98654.16
2019-04-11T16:59:43.775Z,98652.72
2019-04-11T17:02:12.454Z,98651.34
2019-04-11T17:04:41.089Z,98657.98
2019-04-11T17:07:29.434Z,98660.55
2019-04-11T17:09:59.627Z,98664.89
2019-04-11T17:12:28.195Z,98663.12
2019-04-11T17:14:56.752Z,98661.44
2019-04-11T17:17:26.359Z,98666.89
2019-04-11T17:19:54.992Z,98665.18
2019-04-11T17:22:23.595Z,98664.63
2019-04-11T17:24:52.126Z,98672.52
2019-04-11T17:27:21.005Z,98677.55
2019-04-11T17:29:54.719Z,98680.91
2019-04-11T17:32:23.601Z,98693.86
2019-04-11T17:34:51.665Z,98687.96
2019-04-11T17:37:20.221Z,98694.25
2019-04-11T17:39:48.856Z,98703.56
2019-04-11T17:42:17.410Z,98709.47
2019-04-11T17:44:46.091Z,98716.65
2019-04-11T17:47:14.651Z,98720.56
2019-04-11T17:49:43.288Z,98734.13
2019-04-11T17:52:11.920Z,98734.53
2019-04-11T17:54:40.399Z,98739.67
2019-04-11T17:57:09.003Z,98746.30
2019-04-11T17:59:40.357Z,98747.25
2019-04-11T18:02:10.556Z,98752.03
2019-04-11T18:04:44.032Z,98756.13
2019-04-11T18:07:16.791Z,98763.30
2019-04-11T18:09:46.169Z,98766.03
2019-04-11T18:12:14.759Z,98764.66
2019-04-11T18:14:45.688Z,98773.05
2019-04-11T18:17:16.483Z,98769.69
2019-04-11T18:19:44.688Z,98780.19
2019-04-11T18:22:14.269Z,98776.25
2019-04-11T18:24:43.029Z,98779.18
2019-04-11T18:27:11.731Z,98775.71
2019-04-11T18:29:40.418Z,98779.75
2019-04-11T18:32:09.098Z,98782.37
2019-04-11T18:34:37.866Z,98778.12
2019-04-11T18:37:06.501Z,98783.45
2019-04-11T18:39:36.036Z,98785.05
2019-04-11T18:42:05.883Z,98793.42
2019-04-11T18:44:34.548Z,98793.31
2019-04-11T18:47:03.164Z,98798.73
2019-04-11T18:49:31.837Z,98793.48
2019-04-11T18:52:00.464Z,98792.17
2019-04-11T18:54:29.132Z,98791.84
2019-04-11T18:56:57.806Z,98791.31
2019-04-11T18:59:26.437Z,98793.98
2019-04-11T19:01:55.110Z,98798.23
2019-04-11T19:04:32.435Z,98796.31
2019-04-11T19:06:54.052Z,98798.61
2019-04-11T19:09:22.845Z,98795.20
2019-04-11T19:11:51.596Z,98798.30
2019-04-11T19:14:20.214Z,98792.16
2019-04-11T19:16:48.845Z,98790.94
2019-04-11T19:19:18.396Z,98791.06
2019-04-11T19:21:50.876Z,98792.94
2019-04-11T19:24:18.340Z,98796.09
2019-04-11T19:26:47.047Z,98793.38
2019-04-11T19:29:15.683Z,98785.75
2019-04-11T19:31:44.317Z,98790.53
2019-04-11T19:34:12.942Z,98786.91
2019-04-11T19:36:42.479Z,98798.70
2019-04-11T19:39:13.915Z,98794.68
2019-04-11T19:41:42.069Z,98799.80
2019-04-11T19:44:10.560Z,98797.69
2019-04-11T19:46:40.879Z,98789.52
2019-04-11T19:49:09.723Z,98786.75
2019-04-11T19:51:38.277Z,98791.77
2019-04-11T19:54:07.722Z,98792.63
2019-04-11T19:56:38.123Z,98801.25
2019-04-11T19:59:09.572Z,98797.47
2019-04-11T20:01:38.174Z,98797.39
2019-04-11T20:04:06.806Z,98796.02
2019-04-11T20:06:35.422Z,98800.61
2019-04-11T20:09:05.503Z,98804.94
2019-04-11T20:11:33.975Z,98812.48
2019-04-11T20:14:03.212Z,98813.26
2019-04-11T20:16:41.135Z,98814.50
2019-04-11T20:19:02.126Z,98814.55
2019-04-11T20:21:30.814Z,98824.24
2019-04-11T20:23:59.424Z,98818.05
2019-04-11T20:26:28.048Z,98817.39
2019-04-11T20:28:56.622Z,98817.73
2019-04-11T20:31:25.283Z,98818.58
2019-04-11T20:33:53.883Z,98813.10
2019-04-11T20:36:32.868Z,98823.69
2019-04-11T20:38:52.797Z,98825.75
2019-04-11T20:41:23.141Z,98827.86
2019-04-11T20:43:56.003Z,98831.52
2019-04-11T20:46:22.037Z,98832.03
2019-04-11T20:48:50.723Z,98840.84
2019-04-11T20:51:19.314Z,98853.13
2019-04-11T20:53:48.023Z,98854.27
2019-04-11T20:56:23.947Z,98845.31
2019-04-11T20:58:47.110Z,98845.94
2019-04-11T21:01:15.822Z,98848.86
2019-04-11T21:03:44.571Z,98852.73
2019-04-11T21:06:13.265Z,98859.72
2019-04-11T21:08:41.918Z,98877.94
2019-04-11T21:11:10.630Z,98882.28
2019-04-11T21:13:39.376Z,98887.84
2019-04-11T21:16:08.014Z,98890.70
2019-04-11T21:18:36.716Z,98891.02
2019-04-11T21:21:05.457Z,98892.89
2019-04-11T21:23:34.157Z,98895.36
2019-04-11T21:26:02.865Z,98898.59
2019-04-11T21:28:31.615Z,98898.49
2019-04-11T21:31:00.824Z,98899.16
2019-04-11T21:33:33.949Z,98891.77
2019-04-11T21:36:01.347Z,98890.03
2019-04-11T21:38:31.430Z,98889.93
2019-04-11T21:41:00.192Z,98891.76
2019-04-11T21:43:28.864Z,98894.26
2019-04-11T21:45:57.563Z,98892.84
2019-04-11T21:48:26.303Z,98897.11
2019-04-11T21:50:55.005Z,98901.94
2019-04-11T21:53:23.642Z,98897.22
2019-04-11T21:55:52.342Z,98897.14
2019-04-11T21:58:21.090Z,98902.78
2019-04-11T22:00:54.378Z,98891.77
2019-04-11T22:03:24.238Z,98890.10
2019-04-11T22:05:53.595Z,98885.03
2019-04-11T22:08:22.302Z,98885.17
2019-04-11T22:10:51.101Z,98885.17
2019-04-11T22:13:19.771Z,98882.42
2019-04-11T22:15:48.475Z,98878.56
2019-04-11T22:18:17.124Z,98882.23
2019-04-11T22:20:45.973Z,98873.95
2019-04-11T22:23:14.654Z,98878.70
2019-04-11T22:25:43.286Z,98874.38
2019-04-11T22:28:12.029Z,98866.30
2019-04-11T22:30:40.778Z,98870.31
2019-04-11T22:33:16.907Z,98881.58
2019-04-11T22:35:45.570Z,98897.08
2019-04-11T22:38:14.219Z,98896.56
2019-04-11T22:40:42.929Z,98901.38
2019-04-11T22:43:23.775Z,98897.66
2019-04-11T22:45:42.084Z,98906.09
2019-04-11T22:48:10.762Z,98902.84
2019-04-11T22:50:40.765Z,98901.86
2019-04-11T22:53:13.545Z,98912.38
2019-04-11T22:55:42.231Z,98902.02
2019-04-11T22:58:13.948Z,98896.17
2019-04-11T23:00:44.905Z,98890.11
2019-04-11T23:03:17.037Z,98889.16
2019-04-11T23:05:46.982Z,98891.70
2019-04-11T23:08:18.992Z,98893.50
2019-04-11T23:10:47.365Z,98896.16
2019-04-11T23:13:16.416Z,98887.52
2019-04-11T23:15:45.099Z,98898.26
2019-04-11T23:18:14.638Z,98894.41
2019-04-11T23:20:44.237Z,98885.56
2019-04-11T23:23:14.082Z,98884.95
2019-04-11T23:25:42.763Z,98887.99
2019-04-11T23:28:15.587Z,98883.09
2019-04-11T23:30:41.607Z,98882.63
2019-04-11T23:33:10.231Z,98877.45
2019-04-11T23:35:38.907Z,98873.69
2019-04-11T23:38:07.751Z,98878.16
2019-04-11T23:40:36.259Z,98882.34
2019-04-11T23:43:04.890Z,98881.16
2019-04-11T23:45:33.769Z,98866.92
2019-04-11T23:48:02.339Z,98869.17
2019-04-11T23:50:30.907Z,98864.71
2019-04-11T23:52:59.592Z,98856.08
2019-04-11T23:55:30.710Z,98860.39
2019-04-11T23:58:01.110Z,98871.67
